sensor_id;sensor_type;location;lat;lon;timestamp;P1;durP1;ratioP1;P2;durP2;ratioP2
46607;SDS011;32330;51.936;7.184;2022-11-02T04:04:46;8.40;;;1.80;;
46607;SDS011;32330;51.936;7.184;2022-11-02T04:07:16;9.73;;;2.00;;
46607;SDS011;32330;51.936;7.184;2022-11-02T04:09:47;8.45;;;1.92;;
46607;SDS011;32330;51.936;7.184;2022-11-02T04:12:14;9.48;;;1.80;;
46607;SDS011;32330;51.936;7.184;2022-11-02T04:14:59;9.73;;;1.88;;
46607;SDS011;32330;51.936;7.184;2022-11-02T04:17:27;7.88;;;1.90;;
46607;SDS011;32330;51.936;7.184;2022-11-02T04:20:14;9.23;;;1.88;;
46607;SDS011;32330;51.936;7.184;2022-11-02T04:22:42;9.88;;;2.00;;
46607;SDS011;32330;51.936;7.184;2022-11-02T04:25:27;7.38;;;1.83;;
46607;SDS011;32330;51.936;7.184;2022-11-02T04:28:04;10.38;;;2.33;;
46607;SDS011;32330;51.936;7.184;2022-11-02T04:30:35;11.23;;;2.55;;
46607;SDS011;32330;51.936;7.184;2022-11-02T04:33:04;9.65;;;1.95;;
46607;SDS011;32330;51.936;7.184;2022-11-02T04:38:21;10.85;;;2.13;;
46607;SDS011;32330;51.936;7.184;2022-11-02T04:41:12;10.55;;;2.40;;
46607;SDS011;32330;51.936;7.184;2022-11-02T04:43:58;10.70;;;2.30;;
46607;SDS011;32330;51.936;7.184;2022-11-02T04:46:27;11.20;;;2.00;;
46607;SDS011;32330;51.936;7.184;2022-11-02T04:48:57;8.77;;;1.60;;
46607;SDS011;32330;51.936;7.184;2022-11-02T04:51:24;7.38;;;1.40;;
46607;SDS011;32330;51.936;7.184;2022-11-02T04:53:53;11.32;;;2.50;;
46607;SDS011;32330;51.936;7.184;2022-11-02T04:56:22;8.55;;;2.00;;
46607;SDS011;32330;51.936;7.184;2022-11-02T04:58:50;9.32;;;2.33;;
46607;SDS011;32330;51.936;7.184;2022-11-02T05:01:18;8.85;;;2.00;;
46607;SDS011;32330;51.936;7.184;2022-11-02T05:03:46;8.93;;;2.20;;
46607;SDS011;32330;51.936;7.184;2022-11-02T05:06:16;5.55;;;1.80;;
46607;SDS011;32330;51.936;7.184;2022-11-02T05:08:46;9.40;;;1.92;;
46607;SDS011;32330;51.936;7.184;2022-11-02T05:11:13;7.03;;;2.00;;
46607;SDS011;32330;51.936;7.184;2022-11-02T05:13:40;8.70;;;1.77;;
46607;SDS011;32330;51.936;7.184;2022-11-02T05:16:09;6.88;;;1.83;;
46607;SDS011;32330;51.936;7.184;2022-11-02T05:18:38;14.00;;;2.30;;
46607;SDS011;32330;51.936;7.184;2022-11-02T05:21:05;8.25;;;1.80;;
46607;SDS011;32330;51.936;7.184;2022-11-02T05:23:35;6.07;;;2.00;;
46607;SDS011;32330;51.936;7.184;2022-11-02T05:26:04;5.70;;;1.52;;
46607;SDS011;32330;51.936;7.184;2022-11-02T05:28:33;6.90;;;1.77;;
46607;SDS011;32330;51.936;7.184;2022-11-02T05:31:02;8.38;;;1.75;;
46607;SDS011;32330;51.936;7.184;2022-11-02T05:33:32;7.35;;;1.98;;
46607;SDS011;32330;51.936;7.184;2022-11-02T05:36:06;6.65;;;1.63;;
46607;SDS011;32330;51.936;7.184;2022-11-02T05:38:38;12.45;;;1.80;;
46607;SDS011;32330;51.936;7.184;2022-11-02T05:41:06;6.85;;;1.85;;
46607;SDS011;32330;51.936;7.184;2022-11-02T05:43:36;7.18;;;1.83;;
46607;SDS011;32330;51.936;7.184;2022-11-02T05:46:06;8.85;;;2.15;;
46607;SDS011;32330;51.936;7.184;2022-11-02T05:48:33;7.97;;;1.58;;
46607;SDS011;32330;51.936;7.184;2022-11-02T05:51:00;9.68;;;1.83;;
46607;SDS011;32330;51.936;7.184;2022-11-02T05:53:29;11.25;;;2.10;;
46607;SDS011;32330;51.936;7.184;2022-11-02T05:55:59;9.43;;;2.08;;
46607;SDS011;32330;51.936;7.184;2022-11-02T05:58:27;10.57;;;1.90;;
46607;SDS011;32330;51.936;7.184;2022-11-02T06:00:57;11.07;;;2.00;;
46607;SDS011;32330;51.936;7.184;2022-11-02T06:03:24;7.07;;;2.00;;
46607;SDS011;32330;51.936;7.184;2022-11-02T06:05:54;9.38;;;2.17;;
46607;SDS011;32330;51.936;7.184;2022-11-02T06:08:22;11.27;;;2.35;;
46607;SDS011;32330;51.936;7.184;2022-11-02T06:10:49;11.57;;;2.08;;
46607;SDS011;32330;51.936;7.184;2022-11-02T06:13:17;8.80;;;2.15;;
46607;SDS011;32330;51.936;7.184;2022-11-02T06:15:44;8.13;;;2.00;;
46607;SDS011;32330;51.936;7.184;2022-11-02T06:18:11;7.30;;;1.67;;
46607;SDS011;32330;51.936;7.184;2022-11-02T06:20:38;11.88;;;1.90;;
46607;SDS011;32330;51.936;7.184;2022-11-02T06:23:05;11.10;;;1.80;;
46607;SDS011;32330;51.936;7.184;2022-11-02T06:25:32;9.77;;;2.65;;
46607;SDS011;32330;51.936;7.184;2022-11-02T06:27:59;8.93;;;1.98;;
46607;SDS011;32330;51.936;7.184;2022-11-02T06:30:30;9.90;;;2.63;;
46607;SDS011;32330;51.936;7.184;2022-11-02T06:32:57;9.60;;;2.00;;
46607;SDS011;32330;51.936;7.184;2022-11-02T06:35:24;8.35;;;1.95;;
46607;SDS011;32330;51.936;7.184;2022-11-02T06:37:51;6.72;;;1.70;;
46607;SDS011;32330;51.936;7.184;2022-11-02T06:40:18;14.20;;;2.20;;
46607;SDS011;32330;51.936;7.184;2022-11-02T06:42:45;8.07;;;1.70;;
46607;SDS011;32330;51.936;7.184;2022-11-02T06:45:12;11.07;;;2.45;;
46607;SDS011;32330;51.936;7.184;2022-11-02T06:47:40;10.32;;;2.42;;
46607;SDS011;32330;51.936;7.184;2022-11-02T06:50:08;10.88;;;2.65;;
46607;SDS011;32330;51.936;7.184;2022-11-02T06:52:40;14.45;;;2.50;;
46607;SDS011;32330;51.936;7.184;2022-11-02T06:55:08;7.28;;;2.05;;
46607;SDS011;32330;51.936;7.184;2022-11-02T06:57:35;9.30;;;2.40;;
46607;SDS011;32330;51.936;7.184;2022-11-02T07:00:03;12.88;;;2.45;;
46607;SDS011;32330;51.936;7.184;2022-11-02T07:02:31;10.88;;;2.03;;
46607;SDS011;32330;51.936;7.184;2022-11-02T07:04:59;12.73;;;2.00;;
46607;SDS011;32330;51.936;7.184;2022-11-02T07:07:27;12.23;;;2.92;;
46607;SDS011;32330;51.936;7.184;2022-11-02T07:09:55;6.65;;;1.95;;
46607;SDS011;32330;51.936;7.184;2022-11-02T07:12:23;10.50;;;2.10;;
46607;SDS011;32330;51.936;7.184;2022-11-02T07:14:50;10.50;;;1.90;;
46607;SDS011;32330;51.936;7.184;2022-11-02T07:17:17;16.48;;;2.83;;
46607;SDS011;32330;51.936;7.184;2022-11-02T07:19:44;8.23;;;1.70;;
46607;SDS011;32330;51.936;7.184;2022-11-02T07:22:13;10.57;;;2.05;;
46607;SDS011;32330;51.936;7.184;2022-11-02T07:24:39;11.20;;;2.13;;
46607;SDS011;32330;51.936;7.184;2022-11-02T07:27:07;10.70;;;2.40;;
46607;SDS011;32330;51.936;7.184;2022-11-02T07:29:33;7.82;;;2.20;;
46607;SDS011;32330;51.936;7.184;2022-11-02T07:32:01;6.82;;;2.30;;
46607;SDS011;32330;51.936;7.184;2022-11-02T07:34:28;12.40;;;1.92;;
46607;SDS011;32330;51.936;7.184;2022-11-02T07:36:55;4.78;;;1.45;;
46607;SDS011;32330;51.936;7.184;2022-11-02T07:39:23;11.00;;;2.80;;
46607;SDS011;32330;51.936;7.184;2022-11-02T07:41:50;10.93;;;3.05;;
46607;SDS011;32330;51.936;7.184;2022-11-02T07:44:17;9.15;;;1.90;;
46607;SDS011;32330;51.936;7.184;2022-11-02T07:46:53;8.07;;;1.90;;
46607;SDS011;32330;51.936;7.184;2022-11-02T07:49:21;6.85;;;1.40;;
46607;SDS011;32330;51.936;7.184;2022-11-02T07:51:48;8.50;;;1.95;;
46607;SDS011;32330;51.936;7.184;2022-11-02T07:54:16;10.45;;;1.98;;
46607;SDS011;32330;51.936;7.184;2022-11-02T07:56:44;9.02;;;1.92;;
46607;SDS011;32330;51.936;7.184;2022-11-02T07:59:11;10.85;;;2.33;;
46607;SDS011;32330;51.936;7.184;2022-11-02T08:01:38;11.45;;;2.35;;
46607;SDS011;32330;51.936;7.184;2022-11-02T08:04:05;11.05;;;1.92;;
46607;SDS011;32330;51.936;7.184;2022-11-02T08:06:33;17.55;;;2.10;;
46607;SDS011;32330;51.936;7.184;2022-11-02T08:09:00;7.22;;;1.70;;
46607;SDS011;32330;51.936;7.184;2022-11-02T08:11:28;8.52;;;2.53;;
46607;SDS011;32330;51.936;7.184;2022-11-02T08:13:56;14.48;;;2.22;;
46607;SDS011;32330;51.936;7.184;2022-11-02T08:16:23;9.55;;;2.92;;
46607;SDS011;32330;51.936;7.184;2022-11-02T08:18:50;11.73;;;2.42;;
46607;SDS011;32330;51.936;7.184;2022-11-02T08:21:17;9.38;;;1.98;;
46607;SDS011;32330;51.936;7.184;2022-11-02T08:23:44;12.05;;;2.28;;
46607;SDS011;32330;51.936;7.184;2022-11-02T08:26:11;11.43;;;2.00;;
46607;SDS011;32330;51.936;7.184;2022-11-02T08:28:38;9.70;;;1.90;;
46607;SDS011;32330;51.936;7.184;2022-11-02T08:31:08;13.63;;;2.40;;
46607;SDS011;32330;51.936;7.184;2022-11-02T08:33:39;7.38;;;1.77;;
46607;SDS011;32330;51.936;7.184;2022-11-02T08:36:07;8.88;;;2.00;;
46607;SDS011;32330;51.936;7.184;2022-11-02T08:38:34;9.20;;;1.70;;
46607;SDS011;32330;51.936;7.184;2022-11-02T08:41:02;11.85;;;2.72;;
46607;SDS011;32330;51.936;7.184;2022-11-02T08:43:29;9.10;;;1.58;;
46607;SDS011;32330;51.936;7.184;2022-11-02T08:45:56;9.90;;;2.63;;
46607;SDS011;32330;51.936;7.184;2022-11-02T08:48:25;10.10;;;1.55;;
46607;SDS011;32330;51.936;7.184;2022-11-02T08:50:52;10.90;;;1.85;;
46607;SDS011;32330;51.936;7.184;2022-11-02T08:53:20;7.45;;;1.95;;
46607;SDS011;32330;51.936;7.184;2022-11-02T08:55:47;14.75;;;2.30;;
46607;SDS011;32330;51.936;7.184;2022-11-02T08:58:14;10.50;;;2.45;;
46607;SDS011;32330;51.936;7.184;2022-11-02T09:00:42;9.35;;;2.22;;
46607;SDS011;32330;51.936;7.184;2022-11-02T09:03:09;7.20;;;2.10;;
46607;SDS011;32330;51.936;7.184;2022-11-02T09:05:39;11.55;;;1.92;;
46607;SDS011;32330;51.936;7.184;2022-11-02T09:08:08;12.80;;;1.80;;
46607;SDS011;32330;51.936;7.184;2022-11-02T09:10:37;11.15;;;2.47;;
46607;SDS011;32330;51.936;7.184;2022-11-02T09:13:05;8.15;;;2.97;;
46607;SDS011;32330;51.936;7.184;2022-11-02T09:15:34;12.20;;;2.03;;
46607;SDS011;32330;51.936;7.184;2022-11-02T09:18:02;6.50;;;1.80;;
46607;SDS011;32330;51.936;7.184;2022-11-02T09:20:29;9.80;;;2.10;;
46607;SDS011;32330;51.936;7.184;2022-11-02T09:22:57;7.35;;;1.20;;
46607;SDS011;32330;51.936;7.184;2022-11-02T09:25:24;9.05;;;2.22;;
46607;SDS011;32330;51.936;7.184;2022-11-02T09:27:51;10.45;;;3.33;;
46607;SDS011;32330;51.936;7.184;2022-11-02T09:30:19;10.68;;;1.60;;
46607;SDS011;32330;51.936;7.184;2022-11-02T09:32:52;11.23;;;1.90;;
46607;SDS011;32330;51.936;7.184;2022-11-02T09:35:19;10.07;;;1.73;;
46607;SDS011;32330;51.936;7.184;2022-11-02T09:37:46;6.78;;;1.58;;
46607;SDS011;32330;51.936;7.184;2022-11-02T09:40:15;11.65;;;2.40;;
46607;SDS011;32330;51.936;7.184;2022-11-02T09:42:49;8.60;;;1.73;;
46607;SDS011;32330;51.936;7.184;2022-11-02T09:45:28;8.48;;;1.80;;
46607;SDS011;32330;51.936;7.184;2022-11-02T09:48:00;8.73;;;1.95;;
46607;SDS011;32330;51.936;7.184;2022-11-02T09:53:05;9.27;;;1.75;;
46607;SDS011;32330;51.936;7.184;2022-11-02T09:55:36;7.95;;;1.60;;
46607;SDS011;32330;51.936;7.184;2022-11-02T09:58:11;7.38;;;1.63;;
46607;SDS011;32330;51.936;7.184;2022-11-02T10:00:42;8.52;;;1.92;;
46607;SDS011;32330;51.936;7.184;2022-11-02T10:03:16;13.40;;;2.10;;
46607;SDS011;32330;51.936;7.184;2022-11-02T10:05:54;8.48;;;1.42;;
46607;SDS011;32330;51.936;7.184;2022-11-02T10:08:25;6.70;;;1.48;;
46607;SDS011;32330;51.936;7.184;2022-11-02T10:11:06;8.85;;;1.98;;
46607;SDS011;32330;51.936;7.184;2022-11-02T10:13:44;8.63;;;1.73;;
46607;SDS011;32330;51.936;7.184;2022-11-02T10:16:16;8.20;;;2.08;;
46607;SDS011;32330;51.936;7.184;2022-11-02T10:18:46;9.15;;;1.77;;
46607;SDS011;32330;51.936;7.184;2022-11-02T10:21:18;10.68;;;2.63;;
46607;SDS011;32330;51.936;7.184;2022-11-02T10:23:46;8.93;;;2.15;;
46607;SDS011;32330;51.936;7.184;2022-11-02T10:26:22;9.07;;;1.48;;
46607;SDS011;32330;51.936;7.184;2022-11-02T10:28:55;11.90;;;3.13;;
46607;SDS011;32330;51.936;7.184;2022-11-02T10:31:24;8.18;;;2.03;;
46607;SDS011;32330;51.936;7.184;2022-11-02T10:33:55;8.13;;;2.00;;
46607;SDS011;32330;51.936;7.184;2022-11-02T10:36:33;11.57;;;2.20;;
46607;SDS011;32330;51.936;7.184;2022-11-02T10:39:15;6.43;;;1.45;;
46607;SDS011;32330;51.936;7.184;2022-11-02T10:42:01;7.55;;;1.88;;
46607;SDS011;32330;51.936;7.184;2022-11-02T10:44:43;10.98;;;1.77;;
46607;SDS011;32330;51.936;7.184;2022-11-02T10:47:24;8.75;;;1.92;;
46607;SDS011;32330;51.936;7.184;2022-11-02T10:52:30;7.78;;;1.63;;
46607;SDS011;32330;51.936;7.184;2022-11-02T10:55:02;9.02;;;1.90;;
46607;SDS011;32330;51.936;7.184;2022-11-02T10:57:30;9.10;;;1.80;;
46607;SDS011;32330;51.936;7.184;2022-11-02T11:03:06;9.27;;;2.05;;
46607;SDS011;32330;51.936;7.184;2022-11-02T11:05:35;8.20;;;1.77;;
46607;SDS011;32330;51.936;7.184;2022-11-02T11:08:25;4.90;;;1.35;;
46607;SDS011;32330;51.936;7.184;2022-11-02T11:10:55;6.38;;;1.50;;
46607;SDS011;32330;51.936;7.184;2022-11-02T11:13:51;7.45;;;1.48;;
46607;SDS011;32330;51.936;7.184;2022-11-02T11:19:05;8.13;;;1.83;;
46607;SDS011;32330;51.936;7.184;2022-11-02T11:21:43;5.63;;;1.42;;
46607;SDS011;32330;51.936;7.184;2022-11-02T11:24:18;15.00;;;2.15;;
46607;SDS011;32330;51.936;7.184;2022-11-02T11:27:00;7.22;;;2.40;;
46607;SDS011;32330;51.936;7.184;2022-11-02T11:29:31;12.23;;;2.13;;
46607;SDS011;32330;51.936;7.184;2022-11-02T11:31:59;5.13;;;1.25;;
46607;SDS011;32330;51.936;7.184;2022-11-02T11:34:28;6.90;;;1.40;;
46607;SDS011;32330;51.936;7.184;2022-11-02T11:37:05;11.65;;;1.67;;
46607;SDS011;32330;51.936;7.184;2022-11-02T11:39:35;7.32;;;1.70;;
46607;SDS011;32330;51.936;7.184;2022-11-02T11:42:04;7.30;;;1.52;;
46607;SDS011;32330;51.936;7.184;2022-11-02T11:44:44;5.90;;;1.90;;
46607;SDS011;32330;51.936;7.184;2022-11-02T11:49:50;9.48;;;1.98;;
46607;SDS011;32330;51.936;7.184;2022-11-02T11:52:19;4.75;;;1.23;;
46607;SDS011;32330;51.936;7.184;2022-11-02T11:54:52;8.65;;;1.60;;
46607;SDS011;32330;51.936;7.184;2022-11-02T11:57:25;6.65;;;1.65;;
46607;SDS011;32330;51.936;7.184;2022-11-02T11:59:55;6.90;;;1.63;;
46607;SDS011;32330;51.936;7.184;2022-11-02T12:02:27;8.55;;;1.90;;
46607;SDS011;32330;51.936;7.184;2022-11-02T12:04:59;8.48;;;1.65;;
46607;SDS011;32330;51.936;7.184;2022-11-02T12:07:40;6.30;;;1.42;;
46607;SDS011;32330;51.936;7.184;2022-11-02T12:12:51;7.57;;;1.60;;
46607;SDS011;32330;51.936;7.184;2022-11-02T12:18:19;11.00;;;1.63;;
46607;SDS011;32330;51.936;7.184;2022-11-02T12:20:58;8.98;;;2.00;;
46607;SDS011;32330;51.936;7.184;2022-11-02T12:23:48;9.60;;;2.03;;
46607;SDS011;32330;51.936;7.184;2022-11-02T12:26:27;14.43;;;2.53;;
46607;SDS011;32330;51.936;7.184;2022-11-02T12:29:06;7.40;;;1.52;;
46607;SDS011;32330;51.936;7.184;2022-11-02T12:31:47;7.00;;;1.75;;
46607;SDS011;32330;51.936;7.184;2022-11-02T12:34:27;6.45;;;2.05;;
46607;SDS011;32330;51.936;7.184;2022-11-02T12:37:08;7.20;;;1.60;;
46607;SDS011;32330;51.936;7.184;2022-11-02T12:39:46;8.82;;;1.60;;
46607;SDS011;32330;51.936;7.184;2022-11-02T12:42:23;7.15;;;1.95;;
46607;SDS011;32330;51.936;7.184;2022-11-02T12:44:57;13.15;;;2.20;;
46607;SDS011;32330;51.936;7.184;2022-11-02T12:47:44;9.27;;;2.13;;
46607;SDS011;32330;51.936;7.184;2022-11-02T12:50:21;8.13;;;1.88;;
46607;SDS011;32330;51.936;7.184;2022-11-02T12:53:00;9.18;;;2.22;;
46607;SDS011;32330;51.936;7.184;2022-11-02T12:55:35;10.27;;;2.45;;
46607;SDS011;32330;51.936;7.184;2022-11-02T12:58:10;12.45;;;2.58;;
46607;SDS011;32330;51.936;7.184;2022-11-02T13:00:44;9.00;;;1.60;;
46607;SDS011;32330;51.936;7.184;2022-11-02T13:03:21;8.80;;;1.90;;
46607;SDS011;32330;51.936;7.184;2022-11-02T13:05:57;8.25;;;2.10;;
46607;SDS011;32330;51.936;7.184;2022-11-02T13:08:32;9.00;;;1.95;;
46607;SDS011;32330;51.936;7.184;2022-11-02T13:11:04;6.72;;;1.58;;
46607;SDS011;32330;51.936;7.184;2022-11-02T13:13:36;9.23;;;1.70;;
46607;SDS011;32330;51.936;7.184;2022-11-02T13:16:15;10.35;;;2.28;;
46607;SDS011;32330;51.936;7.184;2022-11-02T13:18:46;9.20;;;2.05;;
46607;SDS011;32330;51.936;7.184;2022-11-02T13:21:16;8.23;;;1.67;;
46607;SDS011;32330;51.936;7.184;2022-11-02T13:23:49;7.45;;;1.83;;
46607;SDS011;32330;51.936;7.184;2022-11-02T13:26:23;4.97;;;1.48;;
46607;SDS011;32330;51.936;7.184;2022-11-02T13:28:55;8.43;;;1.63;;
46607;SDS011;32330;51.936;7.184;2022-11-02T13:31:27;7.78;;;2.47;;
46607;SDS011;32330;51.936;7.184;2022-11-02T13:34:00;5.43;;;1.90;;
46607;SDS011;32330;51.936;7.184;2022-11-02T13:36:30;13.45;;;2.33;;
46607;SDS011;32330;51.936;7.184;2022-11-02T13:39:02;9.80;;;2.22;;
46607;SDS011;32330;51.936;7.184;2022-11-02T13:41:42;6.97;;;1.60;;
46607;SDS011;32330;51.936;7.184;2022-11-02T13:44:48;7.15;;;1.90;;
46607;SDS011;32330;51.936;7.184;2022-11-02T13:50:45;8.75;;;1.63;;
46607;SDS011;32330;51.936;7.184;2022-11-02T13:53:16;10.98;;;1.98;;
46607;SDS011;32330;51.936;7.184;2022-11-02T13:55:49;8.98;;;1.77;;
46607;SDS011;32330;51.936;7.184;2022-11-02T13:58:20;9.18;;;2.00;;
46607;SDS011;32330;51.936;7.184;2022-11-02T14:00:50;6.20;;;2.05;;
46607;SDS011;32330;51.936;7.184;2022-11-02T14:03:20;7.22;;;1.67;;
46607;SDS011;32330;51.936;7.184;2022-11-02T14:05:54;8.48;;;1.92;;
46607;SDS011;32330;51.936;7.184;2022-11-02T14:08:25;8.50;;;1.67;;
46607;SDS011;32330;51.936;7.184;2022-11-02T14:11:03;9.77;;;1.92;;
46607;SDS011;32330;51.936;7.184;2022-11-02T14:16:56;6.90;;;1.50;;
46607;SDS011;32330;51.936;7.184;2022-11-02T14:19:52;7.75;;;1.63;;
46607;SDS011;32330;51.936;7.184;2022-11-02T14:22:22;8.20;;;1.88;;
46607;SDS011;32330;51.936;7.184;2022-11-02T14:24:50;9.18;;;1.77;;
46607;SDS011;32330;51.936;7.184;2022-11-02T14:27:28;5.55;;;1.80;;
46607;SDS011;32330;51.936;7.184;2022-11-02T14:29:56;7.65;;;1.48;;
46607;SDS011;32330;51.936;7.184;2022-11-02T14:32:36;7.82;;;1.75;;
46607;SDS011;32330;51.936;7.184;2022-11-02T14:38:06;4.82;;;1.67;;
46607;SDS011;32330;51.936;7.184;2022-11-02T14:40:47;7.53;;;2.05;;
46607;SDS011;32330;51.936;7.184;2022-11-02T14:43:29;9.13;;;1.58;;
46607;SDS011;32330;51.936;7.184;2022-11-02T14:46:20;7.65;;;2.10;;
46607;SDS011;32330;51.936;7.184;2022-11-02T14:49:02;10.05;;;1.90;;
46607;SDS011;32330;51.936;7.184;2022-11-02T14:51:31;8.93;;;2.03;;
46607;SDS011;32330;51.936;7.184;2022-11-02T14:54:02;14.43;;;2.78;;
46607;SDS011;32330;51.936;7.184;2022-11-02T14:56:48;8.95;;;2.35;;
46607;SDS011;32330;51.936;7.184;2022-11-02T14:59:20;7.07;;;2.50;;
46607;SDS011;32330;51.936;7.184;2022-11-02T15:01:53;9.10;;;2.72;;
46607;SDS011;32330;51.936;7.184;2022-11-02T15:06:51;7.30;;;2.28;;
46607;SDS011;32330;51.936;7.184;2022-11-02T15:12:21;6.78;;;2.33;;
46607;SDS011;32330;51.936;7.184;2022-11-02T15:14:53;4.05;;;1.45;;
46607;SDS011;32330;51.936;7.184;2022-11-02T15:20:30;10.93;;;2.33;;
46607;SDS011;32330;51.936;7.184;2022-11-02T15:23:02;12.65;;;2.75;;
46607;SDS011;32330;51.936;7.184;2022-11-02T15:25:45;9.65;;;2.40;;
46607;SDS011;32330;51.936;7.184;2022-11-02T15:28:14;8.95;;;2.40;;
46607;SDS011;32330;51.936;7.184;2022-11-02T15:30:45;11.13;;;2.53;;
46607;SDS011;32330;51.936;7.184;2022-11-02T15:33:16;10.27;;;2.72;;
46607;SDS011;32330;51.936;7.184;2022-11-02T15:35:50;12.10;;;3.17;;
46607;SDS011;32330;51.936;7.184;2022-11-02T15:38:19;11.65;;;2.60;;
46607;SDS011;32330;51.936;7.184;2022-11-02T15:40:52;8.70;;;2.80;;
46607;SDS011;32330;51.936;7.184;2022-11-02T15:43:35;10.65;;;2.80;;
46607;SDS011;32330;51.936;7.184;2022-11-02T15:46:16;37.38;;;4.65;;
46607;SDS011;32330;51.936;7.184;2022-11-02T15:48:55;13.40;;;2.80;;
46607;SDS011;32330;51.936;7.184;2022-11-02T15:51:31;12.38;;;2.28;;
46607;SDS011;32330;51.936;7.184;2022-11-02T15:54:08;11.18;;;2.53;;
46607;SDS011;32330;51.936;7.184;2022-11-02T15:56:48;9.27;;;2.30;;
46607;SDS011;32330;51.936;7.184;2022-11-02T16:02:34;13.23;;;3.20;;
46607;SDS011;32330;51.936;7.184;2022-11-02T16:05:03;9.50;;;2.85;;
46607;SDS011;32330;51.936;7.184;2022-11-02T16:07:31;10.75;;;2.45;;
46607;SDS011;32330;51.936;7.184;2022-11-02T16:10:11;11.00;;;2.78;;
46607;SDS011;32330;51.936;7.184;2022-11-02T16:12:55;8.32;;;2.13;;
46607;SDS011;32330;51.936;7.184;2022-11-02T16:15:23;11.13;;;2.92;;
46607;SDS011;32330;51.936;7.184;2022-11-02T16:17:51;15.00;;;3.60;;
46607;SDS011;32330;51.936;7.184;2022-11-02T16:20:19;14.57;;;3.65;;
46607;SDS011;32330;51.936;7.184;2022-11-02T16:22:48;10.73;;;3.40;;
46607;SDS011;32330;51.936;7.184;2022-11-02T16:25:17;11.88;;;2.92;;
46607;SDS011;32330;51.936;7.184;2022-11-02T16:27:46;10.55;;;2.78;;
46607;SDS011;32330;51.936;7.184;2022-11-02T16:30:19;13.95;;;2.90;;
46607;SDS011;32330;51.936;7.184;2022-11-02T16:32:49;9.80;;;3.33;;
46607;SDS011;32330;51.936;7.184;2022-11-02T16:35:23;11.55;;;3.25;;
46607;SDS011;32330;51.936;7.184;2022-11-02T16:37:51;10.73;;;3.00;;
46607;SDS011;32330;51.936;7.184;2022-11-02T16:40:18;12.82;;;3.80;;
46607;SDS011;32330;51.936;7.184;2022-11-02T16:42:46;11.00;;;3.53;;
46607;SDS011;32330;51.936;7.184;2022-11-02T16:45:32;13.25;;;5.78;;
46607;SDS011;32330;51.936;7.184;2022-11-02T16:48:08;13.02;;;4.43;;
46607;SDS011;32330;51.936;7.184;2022-11-02T16:53:25;12.43;;;4.20;;
46607;SDS011;32330;51.936;7.184;2022-11-02T16:55:54;12.82;;;4.55;;
46607;SDS011;32330;51.936;7.184;2022-11-02T17:00:55;12.27;;;3.00;;
46607;SDS011;32330;51.936;7.184;2022-11-02T17:03:27;13.52;;;3.80;;
46607;SDS011;32330;51.936;7.184;2022-11-02T17:06:01;11.25;;;4.07;;
46607;SDS011;32330;51.936;7.184;2022-11-02T17:08:31;7.82;;;2.72;;
46607;SDS011;32330;51.936;7.184;2022-11-02T17:11:01;9.50;;;2.47;;
46607;SDS011;32330;51.936;7.184;2022-11-02T17:13:33;10.30;;;2.92;;
46607;SDS011;32330;51.936;7.184;2022-11-02T17:16:13;12.38;;;3.05;;
46607;SDS011;32330;51.936;7.184;2022-11-02T17:19:03;9.85;;;2.47;;
46607;SDS011;32330;51.936;7.184;2022-11-02T17:21:31;11.93;;;2.90;;
46607;SDS011;32330;51.936;7.184;2022-11-02T17:23:59;14.27;;;4.78;;
46607;SDS011;32330;51.936;7.184;2022-11-02T17:33:22;9.50;;;3.45;;
46607;SDS011;32330;51.936;7.184;2022-11-02T17:36:02;12.90;;;3.05;;
46607;SDS011;32330;51.936;7.184;2022-11-02T17:38:42;11.32;;;3.10;;
46607;SDS011;32330;51.936;7.184;2022-11-02T17:41:16;16.55;;;3.63;;
46607;SDS011;32330;51.936;7.184;2022-11-02T17:44:10;11.95;;;4.07;;
46607;SDS011;32330;51.936;7.184;2022-11-02T17:47:10;12.55;;;3.63;;
46607;SDS011;32330;51.936;7.184;2022-11-02T17:49:44;10.98;;;3.80;;
46607;SDS011;32330;51.936;7.184;2022-11-02T17:52:14;9.68;;;4.53;;
46607;SDS011;32330;51.936;7.184;2022-11-02T17:55:06;15.25;;;6.38;;
46607;SDS011;32330;51.936;7.184;2022-11-02T17:59:02;15.02;;;4.95;;
46607;SDS011;32330;51.936;7.184;2022-11-02T18:04:56;17.42;;;6.70;;
46607;SDS011;32330;51.936;7.184;2022-11-02T18:07:23;12.60;;;4.40;;
46607;SDS011;32330;51.936;7.184;2022-11-02T18:09:50;12.13;;;4.47;;
46607;SDS011;32330;51.936;7.184;2022-11-02T18:12:17;11.13;;;4.65;;
46607;SDS011;32330;51.936;7.184;2022-11-02T18:14:44;10.30;;;4.55;;
46607;SDS011;32330;51.936;7.184;2022-11-02T18:17:12;9.75;;;3.47;;
46607;SDS011;32330;51.936;7.184;2022-11-02T18:19:45;12.35;;;3.80;;
46607;SDS011;32330;51.936;7.184;2022-11-02T18:25:04;11.90;;;4.45;;
46607;SDS011;32330;51.936;7.184;2022-11-02T18:27:32;13.80;;;3.50;;
46607;SDS011;32330;51.936;7.184;2022-11-02T18:30:00;9.00;;;3.78;;
46607;SDS011;32330;51.936;7.184;2022-11-02T18:32:27;12.10;;;3.67;;
46607;SDS011;32330;51.936;7.184;2022-11-02T18:34:54;15.13;;;3.17;;
46607;SDS011;32330;51.936;7.184;2022-11-02T18:37:21;10.25;;;3.60;;
46607;SDS011;32330;51.936;7.184;2022-11-02T18:39:49;10.77;;;3.72;;
46607;SDS011;32330;51.936;7.184;2022-11-02T18:42:16;15.20;;;3.50;;
46607;SDS011;32330;51.936;7.184;2022-11-02T18:44:43;11.07;;;3.33;;
46607;SDS011;32330;51.936;7.184;2022-11-02T18:47:10;8.68;;;3.28;;
46607;SDS011;32330;51.936;7.184;2022-11-02T18:49:37;15.02;;;4.35;;
46607;SDS011;32330;51.936;7.184;2022-11-02T18:52:04;11.35;;;4.43;;
46607;SDS011;32330;51.936;7.184;2022-11-02T18:54:31;11.85;;;3.95;;
46607;SDS011;32330;51.936;7.184;2022-11-02T18:56:59;15.90;;;4.05;;
46607;SDS011;32330;51.936;7.184;2022-11-02T18:59:26;8.07;;;3.08;;
46607;SDS011;32330;51.936;7.184;2022-11-02T19:01:53;8.13;;;3.20;;
46607;SDS011;32330;51.936;7.184;2022-11-02T19:04:20;9.02;;;3.17;;
46607;SDS011;32330;51.936;7.184;2022-11-02T19:06:47;16.08;;;3.70;;
46607;SDS011;32330;51.936;7.184;2022-11-02T19:09:32;21.67;;;3.85;;
46607;SDS011;32330;51.936;7.184;2022-11-02T19:12:03;12.00;;;3.70;;
46607;SDS011;32330;51.936;7.184;2022-11-02T19:14:33;11.32;;;3.95;;
46607;SDS011;32330;51.936;7.184;2022-11-02T19:17:01;10.13;;;3.28;;
46607;SDS011;32330;51.936;7.184;2022-11-02T19:19:29;10.75;;;3.55;;
46607;SDS011;32330;51.936;7.184;2022-11-02T19:21:56;7.97;;;3.40;;
46607;SDS011;32330;51.936;7.184;2022-11-02T19:24:24;8.02;;;3.17;;
46607;SDS011;32330;51.936;7.184;2022-11-02T19:26:51;10.38;;;3.25;;
46607;SDS011;32330;51.936;7.184;2022-11-02T19:29:19;11.93;;;3.20;;
46607;SDS011;32330;51.936;7.184;2022-11-02T19:31:47;9.55;;;2.90;;
46607;SDS011;32330;51.936;7.184;2022-11-02T19:34:14;16.02;;;3.40;;
46607;SDS011;32330;51.936;7.184;2022-11-02T19:36:41;9.80;;;3.70;;
46607;SDS011;32330;51.936;7.184;2022-11-02T19:39:08;13.20;;;4.95;;
46607;SDS011;32330;51.936;7.184;2022-11-02T19:41:35;12.35;;;5.15;;
46607;SDS011;32330;51.936;7.184;2022-11-02T19:44:03;14.13;;;5.40;;
46607;SDS011;32330;51.936;7.184;2022-11-02T19:46:32;11.18;;;5.13;;
46607;SDS011;32330;51.936;7.184;2022-11-02T19:48:59;9.57;;;4.15;;
46607;SDS011;32330;51.936;7.184;2022-11-02T19:51:26;11.07;;;3.65;;
46607;SDS011;32330;51.936;7.184;2022-11-02T19:53:56;11.43;;;3.67;;
46607;SDS011;32330;51.936;7.184;2022-11-02T19:56:24;9.55;;;3.47;;
46607;SDS011;32330;51.936;7.184;2022-11-02T19:58:53;11.30;;;3.55;;
46607;SDS011;32330;51.936;7.184;2022-11-02T20:01:21;11.38;;;3.45;;
46607;SDS011;32330;51.936;7.184;2022-11-02T20:03:51;8.73;;;2.67;;
46607;SDS011;32330;51.936;7.184;2022-11-02T20:06:19;11.05;;;3.05;;
46607;SDS011;32330;51.936;7.184;2022-11-02T20:08:49;10.73;;;2.85;;
46607;SDS011;32330;51.936;7.184;2022-11-02T20:11:17;10.98;;;3.00;;
46607;SDS011;32330;51.936;7.184;2022-11-02T20:13:45;9.32;;;2.75;;